Time;durP1;ratioP1;P1;durP2;ratioP2;P2;SDS_P1;SDS_P2;PMS_P1;PMS_P2;Temp;Humidity;BMP_temperature;BMP_pressure;BME280_temperature;BME280_humidity;BME280_pressure;Samples;Min_cycle;Max_cycle;Signal;HPM_P1;HPM_P2
2022/01/26 00:07:55;;;;;;;8.00;1.80;;;5.80;99.90;;;;;;5034716;28;20191;-69
2022/01/26 00:10:23;;;;;;;8.10;1.87;;;5.80;99.90;;;;;;5031568;28;20298;-70
2022/01/26 00:12:49;;;;;;;6.20;1.50;;;5.80;99.90;;;;;;5042487;28;20192;-69
2022/01/26 00:15:16;;;;;;;4.43;1.60;;;5.80;99.90;;;;;;5011975;28;20884;-69
2022/01/26 00:17:42;;;;;;;5.43;1.50;;;5.80;99.90;;;;;;5042991;28;20319;-69
2022/01/26 00:20:39;;;;;;;9.03;1.50;;;5.80;99.90;;;;;;5027960;28;20253;-69
2022/01/26 00:23:09;;;;;;;6.80;1.57;;;5.80;99.90;;;;;;5025434;28;20786;-69
2022/01/26 00:25:46;;;;;;;3.57;1.20;;;5.80;99.90;;;;;;5027032;28;20209;-69
2022/01/26 00:38:57;;;;;;;6.80;1.70;;;5.80;99.90;;;;;;5043610;28;20195;-69
2022/01/26 00:41:44;;;;;;;7.63;1.63;;;5.80;99.90;;;;;;5029757;28;20579;-69
2022/01/26 00:44:10;;;;;;;4.53;1.70;;;5.70;99.90;;;;;;5043604;28;20673;-69
2022/01/26 00:46:38;;;;;;;5.37;1.30;;;5.70;99.90;;;;;;5010294;28;20245;-69
2022/01/26 00:49:04;;;;;;;10.27;2.00;;;5.70;99.90;;;;;;5052227;28;20191;-69
2022/01/26 00:51:31;;;;;;;6.97;1.50;;;5.60;99.90;;;;;;5026596;28;20180;-69
2022/01/26 00:54:05;;;;;;;4.17;1.37;;;5.60;99.90;;;;;;5042452;28;20199;-69
2022/01/26 00:56:32;;;;;;;4.30;1.40;;;5.60;99.90;;;;;;5008676;28;20233;-69
2022/01/26 00:58:59;;;;;;;3.73;1.40;;;5.60;99.90;;;;;;5009507;28;20201;-69
2022/01/26 01:01:26;;;;;;;5.07;1.30;;;5.60;99.90;;;;;;5024701;28;20198;-69
2022/01/26 01:03:53;;;;;;;4.73;1.60;;;5.60;99.90;;;;;;5043064;28;20660;-69
2022/01/26 01:08:49;;;;;;;3.23;1.60;;;5.60;99.90;;;;;;5044398;28;20647;-69
2022/01/26 01:11:17;;;;;;;5.03;1.10;;;5.60;99.90;;;;;;5041880;28;20274;-69
2022/01/26 01:13:45;;;;;;;4.17;1.30;;;5.70;99.90;;;;;;5027803;28;20196;-68
2022/01/26 01:16:17;;;;;;;5.63;1.10;;;5.60;99.90;;;;;;5010785;28;20183;-68
2022/01/26 01:24:07;;;;;;;5.47;1.27;;;5.60;99.90;;;;;;5042597;28;20230;-69
2022/01/26 01:26:58;;;;;;;5.13;1.50;;;5.50;99.90;;;;;;5045066;28;20214;-69
2022/01/26 01:29:34;;;;;;;4.93;1.30;;;5.50;99.90;;;;;;5040298;28;20887;-69
2022/01/26 01:32:10;;;;;;;2.70;1.20;;;5.60;99.90;;;;;;5025517;28;20547;-69
2022/01/26 01:34:39;;;;;;;5.27;1.20;;;5.50;99.90;;;;;;5024674;28;20204;-69
2022/01/26 01:37:09;;;;;;;7.13;1.43;;;5.60;99.90;;;;;;5039679;28;20211;-69
2022/01/26 01:39:37;;;;;;;3.40;1.20;;;5.50;99.90;;;;;;5047002;28;20195;-69
2022/01/26 01:42:06;;;;;;;3.63;1.23;;;5.50;99.90;;;;;;5038089;28;20239;-69
2022/01/26 01:44:34;;;;;;;5.40;1.20;;;5.60;99.90;;;;;;5044037;28;20194;-69
2022/01/26 01:47:00;;;;;;;4.57;1.40;;;5.50;99.90;;;;;;5028296;28;20211;-69
2022/01/26 01:49:28;;;;;;;5.67;1.30;;;5.50;99.90;;;;;;5019813;28;20914;-69
2022/01/26 01:51:59;;;;;;;5.53;1.30;;;5.40;99.90;;;;;;5044557;28;20678;-69
2022/01/26 01:54:26;;;;;;;4.70;1.27;;;5.40;99.90;;;;;;5025539;28;20273;-69
2022/01/26 01:56:56;;;;;;;5.50;1.43;;;5.40;99.90;;;;;;5026550;28;20215;-69
2022/01/26 01:59:25;;;;;;;4.20;1.43;;;5.40;99.90;;;;;;5039329;28;20198;-69
2022/01/26 02:01:52;;;;;;;3.97;1.37;;;5.30;99.90;;;;;;5041036;28;20859;-69
2022/01/26 02:04:18;;;;;;;4.00;1.20;;;5.30;99.90;;;;;;5044750;28;20198;-69
2022/01/26 02:06:45;;;;;;;10.53;1.80;;;5.20;99.90;;;;;;5044890;28;20187;-69
2022/01/26 02:09:12;;;;;;;6.60;1.33;;;5.20;99.90;;;;;;5008839;28;20187;-69
2022/01/26 02:11:51;;;;;;;2.57;0.87;;;5.20;99.90;;;;;;5024827;28;20187;-69
2022/01/26 02:14:25;;;;;;;7.07;1.50;;;5.20;99.90;;;;;;5026975;28;20207;-70
2022/01/26 02:17:11;;;;;;;3.97;1.20;;;5.30;99.90;;;;;;5044439;28;20218;-69
2022/01/26 02:20:12;;;;;;;5.33;1.33;;;5.30;99.90;;;;;;5026855;28;20686;-70
2022/01/26 02:55:49;;;;;;;2.07;1.37;;;5.30;99.90;;;;;;5034351;28;20249;-69
2022/01/26 03:01:14;;;;;;;1.83;1.20;;;5.30;99.90;;;;;;5030253;28;20270;-69
2022/01/26 03:03:53;;;;;;;4.20;1.10;;;5.40;99.90;;;;;;5058587;28;20175;-70
2022/01/26 03:06:27;;;;;;;4.60;1.10;;;5.30;99.90;;;;;;5056733;28;20179;-69
2022/01/26 03:09:00;;;;;;;4.80;1.27;;;5.40;99.90;;;;;;5048952;28;20249;-69
2022/01/26 03:11:27;;;;;;;5.17;1.30;;;5.30;99.90;;;;;;5055415;28;20180;-69
2022/01/26 03:14:03;;;;;;;1.63;1.37;;;5.30;99.90;;;;;;5026906;28;20187;-69
2022/01/26 03:16:42;;;;;;;2.33;1.10;;;5.30;99.90;;;;;;5043946;28;20171;-69
2022/01/26 03:30:26;;;;;;;2.53;1.20;;;5.30;99.90;;;;;;5058762;28;20187;-69
2022/01/26 03:33:13;;;;;;;2.57;1.13;;;5.30;99.90;;;;;;5052738;28;20200;-69
2022/01/26 03:35:44;;;;;;;2.43;1.30;;;5.30;99.90;;;;;;5027844;28;20195;-69
2022/01/26 03:38:19;;;;;;;3.00;1.40;;;5.20;99.90;;;;;;5028198;28;20249;-69
2022/01/26 03:40:47;;;;;;;4.40;1.20;;;5.20;99.90;;;;;;5045280;28;20217;-69
2022/01/26 03:43:13;;;;;;;3.10;1.27;;;5.30;99.90;;;;;;5022526;28;20314;-69
2022/01/26 03:45:39;;;;;;;5.23;1.50;;;5.40;99.90;;;;;;5020371;28;20187;-69
2022/01/26 03:48:08;;;;;;;4.43;1.30;;;5.30;99.90;;;;;;5056397;28;20203;-69
2022/01/26 03:50:34;;;;;;;3.20;1.23;;;5.30;99.90;;;;;;5041958;28;20226;-70
2022/01/26 03:53:00;;;;;;;6.87;1.60;;;5.40;99.90;;;;;;5042735;28;20207;-69
2022/01/26 03:55:27;;;;;;;7.50;2.13;;;5.40;99.90;;;;;;5049169;28;20188;-69
2022/01/26 03:57:53;;;;;;;4.50;1.37;;;5.40;99.90;;;;;;5041452;28;20241;-69
2022/01/26 04:00:19;;;;;;;4.43;1.23;;;5.40;99.90;;;;;;5060935;28;20375;-69
2022/01/26 04:02:45;;;;;;;2.43;1.37;;;5.40;99.90;;;;;;5029923;28;20205;-69
2022/01/26 04:05:12;;;;;;;5.27;1.43;;;5.40;99.90;;;;;;5046719;28;20663;-69
2022/01/26 04:07:41;;;;;;;5.20;1.70;;;5.50;99.90;;;;;;5043611;28;20203;-70
2022/01/26 04:12:54;;;;;;;4.53;1.60;;;5.60;99.90;;;;;;4994557;28;20207;-69
2022/01/26 04:15:30;;;;;;;15.00;1.80;;;5.50;99.90;;;;;;5036185;28;20681;-69
2022/01/26 04:17:58;;;;;;;2.60;1.40;;;5.50;99.90;;;;;;5025838;28;20237;-69
2022/01/26 04:20:28;;;;;;;5.03;1.57;;;5.60;99.90;;;;;;5027247;28;20188;-69
2022/01/26 04:23:21;;;;;;;4.70;1.53;;;5.50;99.90;;;;;;5043140;28;20257;-69
2022/01/26 04:25:43;;;;;;;2.53;1.60;;;5.60;99.90;;;;;;5039966;28;20288;-70
2022/01/26 04:28:15;;;;;;;2.60;1.70;;;5.60;99.90;;;;;;5036889;28;20206;-70
2022/01/26 04:30:42;;;;;;;3.60;1.90;;;5.50;99.90;;;;;;5031096;28;20953;-70
2022/01/26 04:33:08;;;;;;;10.80;3.90;;;5.50;99.90;;;;;;5038310;28;20294;-69
2022/01/26 04:35:40;;;;;;;8.30;3.70;;;5.50;99.90;;;;;;5052756;28;20269;-69
2022/01/26 04:38:35;;;;;;;6.23;3.50;;;5.50;99.90;;;;;;5062569;28;20219;-69
2022/01/26 04:41:44;;;;;;;7.73;2.40;;;5.50;99.90;;;;;;5040049;28;20237;-69
2022/01/26 04:43:42;;;;;;;7.57;2.30;;;5.50;99.90;;;;;;5039904;28;20635;-70
2022/01/26 04:46:09;;;;;;;8.30;2.23;;;5.50;99.90;;;;;;5030755;28;20192;-70
2022/01/26 04:48:35;;;;;;;7.07;2.40;;;5.50;99.90;;;;;;5011412;28;20786;-69
2022/01/26 04:51:01;;;;;;;6.07;2.00;;;5.50;99.90;;;;;;5027654;28;20191;-69
2022/01/26 04:53:28;;;;;;;6.57;2.17;;;5.50;99.90;;;;;;5023870;28;20226;-69
2022/01/26 04:55:54;;;;;;;11.00;2.53;;;5.50;99.90;;;;;;5046063;28;20207;-69
2022/01/26 04:58:21;;;;;;;5.30;2.00;;;5.40;99.90;;;;;;5053451;28;20210;-69
2022/01/26 05:00:47;;;;;;;7.73;1.97;;;5.30;99.90;;;;;;5043666;28;20217;-69
2022/01/26 05:03:13;;;;;;;7.63;2.13;;;5.30;99.90;;;;;;5045580;28;20329;-69
2022/01/26 05:05:40;;;;;;;3.00;1.80;;;5.20;99.90;;;;;;5048798;28;20643;-69
2022/01/26 05:08:06;;;;;;;5.63;2.00;;;5.20;99.90;;;;;;5041798;28;20607;-69
2022/01/26 05:10:34;;;;;;;6.50;2.10;;;5.20;99.90;;;;;;5029655;28;20654;-69
2022/01/26 05:13:01;;;;;;;3.27;1.90;;;5.20;99.90;;;;;;5044244;28;20380;-69
2022/01/26 05:15:27;;;;;;;5.50;2.07;;;5.20;99.90;;;;;;5027605;28;20217;-69
2022/01/26 05:17:53;;;;;;;6.80;2.33;;;5.20;99.90;;;;;;5053844;28;20276;-69
2022/01/26 05:20:19;;;;;;;3.87;2.10;;;5.20;99.90;;;;;;5042676;28;20281;-69
2022/01/26 05:22:46;;;;;;;7.03;2.37;;;5.20;99.90;;;;;;5027625;28;20269;-69
2022/01/26 05:25:14;;;;;;;5.80;2.10;;;5.20;99.90;;;;;;5011365;28;20249;-69
2022/01/26 05:27:41;;;;;;;3.30;1.90;;;5.20;99.90;;;;;;5021045;28;20217;-69
2022/01/26 05:30:09;;;;;;;5.60;2.03;;;5.20;99.90;;;;;;5042259;28;20187;-69
2022/01/26 05:32:35;;;;;;;3.97;2.03;;;5.20;99.90;;;;;;5014808;28;20756;-69
2022/01/26 05:35:02;;;;;;;5.77;2.10;;;5.30;99.90;;;;;;5035855;28;20289;-69
2022/01/26 05:37:28;;;;;;;7.57;2.37;;;5.30;99.90;;;;;;5038239;28;20215;-69
2022/01/26 05:39:55;;;;;;;5.90;2.30;;;5.40;99.90;;;;;;5042326;28;20296;-69
2022/01/26 05:42:22;;;;;;;5.60;2.13;;;5.40;99.90;;;;;;5038101;28;20185;-68
2022/01/26 05:44:48;;;;;;;8.87;2.43;;;5.50;99.90;;;;;;5032665;28;20278;-69
2022/01/26 05:47:19;;;;;;;4.93;2.20;;;5.60;99.90;;;;;;5043138;28;20706;-69
2022/01/26 05:49:45;;;;;;;6.27;2.00;;;5.60;99.90;;;;;;5027544;28;20179;-69
2022/01/26 05:52:12;;;;;;;8.53;2.23;;;5.60;99.90;;;;;;5027115;28;20282;-69
2022/01/26 05:54:38;;;;;;;3.50;2.27;;;5.70;99.90;;;;;;5044416;28;20720;-69
2022/01/26 05:57:05;;;;;;;6.07;2.57;;;5.70;99.90;;;;;;5044066;28;20320;-69
2022/01/26 05:59:32;;;;;;;6.40;2.30;;;5.80;99.90;;;;;;5044310;28;20203;-69
2022/01/26 06:01:59;;;;;;;5.60;2.50;;;5.80;99.90;;;;;;5043094;28;20195;-70
2022/01/26 06:04:27;;;;;;;6.40;2.20;;;5.80;99.90;;;;;;5026264;28;20180;-69
2022/01/26 06:06:55;;;;;;;4.50;2.30;;;5.80;99.90;;;;;;5026366;28;20861;-69
2022/01/26 06:09:21;;;;;;;5.43;2.60;;;5.90;99.90;;;;;;5024826;28;20245;-69
2022/01/26 06:11:47;;;;;;;4.23;2.80;;;5.90;99.90;;;;;;5045591;28;20187;-69
2022/01/26 06:14:13;;;;;;;9.27;2.83;;;6.00;99.90;;;;;;5037901;28;20262;-69
2022/01/26 06:16:40;;;;;;;6.67;3.20;;;6.00;99.90;;;;;;5028344;28;20183;-69
2022/01/26 06:19:06;;;;;;;4.17;3.40;;;6.00;99.90;;;;;;5038482;28;20197;-69
2022/01/26 06:21:32;;;;;;;10.43;3.60;;;6.00;99.90;;;;;;5045986;28;20291;-69
2022/01/26 06:23:59;;;;;;;15.40;4.27;;;6.10;99.90;;;;;;5047346;28;20269;-69
2022/01/26 06:26:25;;;;;;;7.07;3.93;;;6.10;99.90;;;;;;5045892;28;20195;-69
2022/01/26 06:28:52;;;;;;;8.80;4.43;;;6.10;99.90;;;;;;5025916;28;20689;-69
2022/01/26 06:31:19;;;;;;;4.80;4.33;;;6.10;99.90;;;;;;5048833;28;20783;-68
2022/01/26 06:33:47;;;;;;;6.47;4.77;;;6.10;99.90;;;;;;5049041;28;20203;-68
2022/01/26 06:36:16;;;;;;;6.37;4.57;;;6.10;99.90;;;;;;5028972;28;20210;-69
2022/01/26 06:38:45;;;;;;;7.83;4.50;;;6.10;99.90;;;;;;5029452;28;20301;-68
2022/01/26 06:41:13;;;;;;;6.30;4.30;;;6.10;99.90;;;;;;5047286;28;20535;-69
2022/01/26 06:43:50;;;;;;;11.60;4.27;;;6.10;99.90;;;;;;5028596;28;20237;-70
2022/01/26 06:46:24;;;;;;;8.60;4.00;;;6.10;99.90;;;;;;5042228;28;20237;-69
2022/01/26 06:51:43;;;;;;;6.63;3.73;;;6.10;99.90;;;;;;5008677;28;20210;-68
2022/01/26 06:54:10;;;;;;;5.83;3.57;;;6.10;99.90;;;;;;5048533;28;20813;-69
2022/01/26 06:56:36;;;;;;;4.23;3.37;;;6.20;99.90;;;;;;5048204;28;20190;-69
2022/01/26 06:59:03;;;;;;;4.53;3.90;;;6.20;99.90;;;;;;5046976;28;20234;-69
2022/01/26 07:01:29;;;;;;;4.23;3.30;;;6.20;99.90;;;;;;5052768;28;20187;-69
2022/01/26 07:03:55;;;;;;;9.50;3.47;;;6.20;99.90;;;;;;5047040;28;20257;-69
2022/01/26 07:06:21;;;;;;;10.07;3.70;;;6.30;99.90;;;;;;5027478;28;20214;-69
2022/01/26 07:08:47;;;;;;;8.77;3.33;;;6.30;99.90;;;;;;5046740;28;20242;-69
2022/01/26 07:11:14;;;;;;;5.47;3.33;;;6.30;99.90;;;;;;5047822;28;20187;-69
2022/01/26 07:13:41;;;;;;;4.80;3.20;;;6.30;99.90;;;;;;5028718;28;20241;-68
2022/01/26 07:21:37;;;;;;;8.37;3.50;;;6.40;99.90;;;;;;5028980;28;20192;-69
2022/01/26 07:24:03;;;;;;;8.17;3.43;;;6.40;99.90;;;;;;5047261;28;20175;-69
2022/01/26 07:26:30;;;;;;;4.90;3.20;;;6.40;99.90;;;;;;5037021;28;20188;-69
2022/01/26 07:29:10;;;;;;;12.77;3.37;;;6.40;99.90;;;;;;5015389;28;20249;-69
2022/01/26 07:31:42;;;;;;;5.90;3.53;;;6.40;99.90;;;;;;5047845;28;20333;-69
2022/01/26 07:34:13;;;;;;;4.70;3.10;;;6.40;99.90;;;;;;5048078;28;20191;-69
2022/01/26 07:36:40;;;;;;;7.63;3.47;;;6.40;99.90;;;;;;5047550;28;20199;-69
2022/01/26 07:39:09;;;;;;;5.83;3.30;;;6.40;99.90;;;;;;5011284;28;20274;-69
2022/01/26 07:41:35;;;;;;;6.10;3.43;;;6.40;99.90;;;;;;5048002;28;20187;-69
2022/01/26 07:44:02;;;;;;;5.23;3.10;;;6.50;99.90;;;;;;5028792;28;20216;-70
2022/01/26 07:46:30;;;;;;;3.40;3.10;;;6.50;99.90;;;;;;5029836;28;20192;-69
2022/01/26 07:48:57;;;;;;;5.10;3.37;;;6.60;99.90;;;;;;5028945;28;20267;-69
2022/01/26 07:51:24;;;;;;;6.87;3.73;;;6.60;99.90;;;;;;5029066;28;20498;-69
2022/01/26 07:53:50;;;;;;;4.50;3.13;;;6.60;99.90;;;;;;5012702;28;20517;-69
2022/01/26 07:56:17;;;;;;;10.07;3.70;;;6.60;99.90;;;;;;5028691;28;20210;-69
2022/01/26 07:58:43;;;;;;;11.80;3.80;;;6.60;99.90;;;;;;5029499;28;20253;-69
2022/01/26 08:01:10;;;;;;;6.13;3.70;;;6.60;99.90;;;;;;5026649;28;20596;-68
2022/01/26 08:03:37;;;;;;;9.70;3.80;;;6.70;99.90;;;;;;5053296;28;20237;-68
2022/01/26 08:06:07;;;;;;;9.70;4.00;;;6.70;99.90;;;;;;5033344;28;20176;-68
2022/01/26 08:08:34;;;;;;;7.57;4.20;;;6.80;99.90;;;;;;5033302;28;20199;-68
2022/01/26 08:11:00;;;;;;;5.03;3.87;;;6.80;99.90;;;;;;5018472;28;20223;-68
2022/01/26 08:13:27;;;;;;;8.17;3.60;;;6.80;99.90;;;;;;5025889;28;20200;-69
2022/01/26 08:15:57;;;;;;;5.50;3.50;;;6.80;99.90;;;;;;5015645;28;20343;-69
2022/01/26 08:18:25;;;;;;;6.77;4.00;;;6.80;99.90;;;;;;5039919;28;20211;-69
2022/01/26 08:20:51;;;;;;;6.13;3.33;;;6.80;99.90;;;;;;5043106;28;20267;-69
2022/01/26 08:23:20;;;;;;;5.83;3.10;;;6.80;99.90;;;;;;5023842;28;20269;-68
2022/01/26 08:25:50;;;;;;;8.67;4.10;;;6.80;99.90;;;;;;5025659;28;20873;-69
2022/01/26 08:28:26;;;;;;;4.00;3.10;;;6.90;99.90;;;;;;5042003;28;20226;-69
2022/01/26 08:30:53;;;;;;;6.70;4.40;;;6.90;99.90;;;;;;5037113;28;20195;-69
2022/01/26 08:33:20;;;;;;;10.03;4.40;;;7.00;99.90;;;;;;5029646;28;20292;-69
2022/01/26 08:35:46;;;;;;;4.97;2.93;;;7.00;99.90;;;;;;5025555;28;20632;-69
2022/01/26 08:38:14;;;;;;;6.77;2.93;;;7.10;99.90;;;;;;5038760;28;20317;-69
2022/01/26 08:40:42;;;;;;;4.83;3.03;;;7.10;99.90;;;;;;5027803;28;20237;-69
2022/01/26 08:43:08;;;;;;;7.00;3.20;;;7.10;99.90;;;;;;5045374;28;20682;-69
2022/01/26 08:45:34;;;;;;;5.37;3.13;;;7.20;99.90;;;;;;5045333;28;20187;-68
2022/01/26 08:48:00;;;;;;;6.60;2.57;;;7.10;99.90;;;;;;5024584;28;20211;-69
2022/01/26 08:50:27;;;;;;;5.27;3.10;;;7.10;99.90;;;;;;5027050;28;20195;-69
2022/01/26 08:52:53;;;;;;;8.30;2.93;;;7.00;99.90;;;;;;5027420;28;20432;-69
2022/01/26 08:55:20;;;;;;;10.33;2.87;;;7.10;99.90;;;;;;5025745;28;20188;-70
2022/01/26 08:57:46;;;;;;;6.67;2.60;;;7.10;99.90;;;;;;5034357;28;20256;-69
2022/01/26 09:00:14;;;;;;;14.27;3.30;;;7.10;99.90;;;;;;5018448;28;20221;-70
2022/01/26 09:02:42;;;;;;;10.03;2.77;;;7.20;99.90;;;;;;5024686;28;20190;-69
2022/01/26 09:05:09;;;;;;;4.20;2.17;;;7.20;99.90;;;;;;5041561;28;20270;-69
2022/01/26 09:07:37;;;;;;;7.90;2.70;;;7.10;99.90;;;;;;5025099;28;20256;-69
2022/01/26 09:10:06;;;;;;;4.17;2.20;;;7.20;99.90;;;;;;5043552;28;20472;-69
2022/01/26 09:12:35;;;;;;;5.80;2.30;;;7.20;99.90;;;;;;5020698;28;20912;-69
2022/01/26 09:15:05;;;;;;;4.80;2.50;;;7.30;99.90;;;;;;5021986;28;20191;-69
2022/01/26 09:17:34;;;;;;;8.57;2.43;;;7.40;99.90;;;;;;5008778;28;20226;-69
2022/01/26 09:20:03;;;;;;;6.23;2.37;;;7.30;99.90;;;;;;5026591;28;20179;-68
2022/01/26 09:22:31;;;;;;;8.70;2.10;;;7.30;99.90;;;;;;5014156;28;20187;-69
2022/01/26 09:24:57;;;;;;;5.57;2.23;;;7.20;99.90;;;;;;5043086;28;20184;-69
2022/01/26 09:27:24;;;;;;;5.27;1.97;;;7.20;99.90;;;;;;5022384;28;20199;-69
2022/01/26 09:29:51;;;;;;;9.07;2.43;;;7.30;99.90;;;;;;5017973;28;20191;-68
2022/01/26 09:32:19;;;;;;;9.50;2.73;;;7.30;99.90;;;;;;5017646;28;20277;-69
2022/01/26 09:34:47;;;;;;;8.47;2.50;;;7.20;99.90;;;;;;5021314;28;20192;-69
2022/01/26 09:37:17;;;;;;;6.60;2.23;;;7.20;99.90;;;;;;5018838;28;21099;-69
2022/01/26 09:39:46;;;;;;;5.07;2.17;;;7.30;99.90;;;;;;5036563;28;20277;-69
2022/01/26 09:42:13;;;;;;;5.60;1.90;;;7.30;99.90;;;;;;5024047;28;20211;-68
2022/01/26 09:44:41;;;;;;;4.97;2.00;;;7.30;99.90;;;;;;5020424;28;20647;-68
2022/01/26 09:47:09;;;;;;;7.03;2.10;;;7.30;99.90;;;;;;5035321;28;20199;-68
2022/01/26 09:49:38;;;;;;;8.50;2.63;;;7.30;99.90;;;;;;5019804;28;20183;-68
2022/01/26 09:52:18;;;;;;;6.97;2.37;;;7.40;99.90;;;;;;5020389;28;20187;-69
2022/01/26 09:54:45;;;;;;;8.57;2.00;;;7.40;99.90;;;;;;5024323;28;20210;-69
2022/01/26 09:57:13;;;;;;;6.10;2.03;;;7.30;99.90;;;;;;5024435;28;20214;-68
2022/01/26 09:59:39;;;;;;;4.30;2.17;;;7.40;99.90;;;;;;5044186;28;20258;-68
2022/01/26 10:02:06;;;;;;;5.53;2.27;;;7.40;99.90;;;;;;5042244;28;20974;-68
2022/01/26 10:04:38;;;;;;;6.93;2.03;;;7.40;99.90;;;;;;5025667;28;20183;-68
2022/01/26 10:08:01;;;;;;;13.27;2.10;;;7.40;99.90;;;;;;5008689;28;20703;-68
2022/01/26 10:18:56;;;;;;;6.77;2.30;;;7.30;99.90;;;;;;5020509;28;20207;-68
2022/01/26 10:21:23;;;;;;;6.73;2.20;;;7.30;99.90;;;;;;5044829;28;20246;-68
2022/01/26 10:23:53;;;;;;;5.60;2.30;;;7.30;99.90;;;;;;5028043;28;20241;-68
2022/01/26 10:26:20;;;;;;;8.73;2.40;;;7.30;99.90;;;;;;5026137;28;20187;-68
2022/01/26 10:28:57;;;;;;;8.93;2.40;;;7.30;99.90;;;;;;5024261;28;20971;-68
2022/01/26 10:31:33;;;;;;;4.77;2.20;;;7.20;99.90;;;;;;5038652;28;22390;-68
2022/01/26 10:34:10;;;;;;;6.00;2.10;;;7.20;99.90;;;;;;5040223;28;20202;-68
2022/01/26 10:36:48;;;;;;;10.10;2.13;;;7.20;99.90;;;;;;5021436;28;20251;-68
2022/01/26 10:39:23;;;;;;;11.77;2.40;;;7.20;99.90;;;;;;5041251;28;20253;-68
2022/01/26 10:41:53;;;;;;;4.10;2.17;;;7.30;99.90;;;;;;5039073;28;20274;-68
2022/01/26 10:44:42;;;;;;;5.07;2.07;;;7.20;99.90;;;;;;5020320;28;20210;-68
2022/01/26 10:47:10;;;;;;;5.47;2.30;;;7.30;99.90;;;;;;5033597;28;20291;-68
2022/01/26 10:55:00;;;;;;;7.57;2.10;;;7.20;99.90;;;;;;5033480;28;20188;-68
2022/01/26 10:57:28;;;;;;;7.63;2.00;;;7.20;99.90;;;;;;5017725;28;20611;-68
2022/01/26 10:59:55;;;;;;;5.73;1.70;;;7.20;99.90;;;;;;5021778;28;20192;-68
2022/01/26 11:02:28;;;;;;;4.40;1.73;;;7.20;99.90;;;;;;5036469;28;20632;-68
2022/01/26 11:04:54;;;;;;;4.77;2.17;;;7.20;99.90;;;;;;5027935;28;20306;-68
2022/01/26 11:07:36;;;;;;;4.07;1.80;;;7.20;99.90;;;;;;5010973;28;20188;-68
2022/01/26 11:10:06;;;;;;;4.93;1.70;;;7.20;99.90;;;;;;5044428;28;20240;-68
2022/01/26 11:12:38;;;;;;;8.63;2.27;;;7.20;99.90;;;;;;5027609;28;20667;-68
2022/01/26 11:15:16;;;;;;;5.97;2.13;;;7.20;99.90;;;;;;5030499;28;20195;-68
2022/01/26 11:17:46;;;;;;;3.33;1.93;;;7.20;99.90;;;;;;5026941;28;20224;-68
2022/01/26 11:20:40;;;;;;;6.93;2.00;;;7.20;99.90;;;;;;5028286;28;20216;-67
2022/01/26 11:23:06;;;;;;;11.70;1.77;;;7.20;99.90;;;;;;5031008;28;20278;-68
2022/01/26 11:25:47;;;;;;;3.67;1.70;;;7.20;99.90;;;;;;5026677;28;20195;-68
2022/01/26 11:28:25;;;;;;;3.23;1.70;;;7.20;99.90;;;;;;5011704;28;20222;-68
2022/01/26 11:30:58;;;;;;;3.70;1.67;;;7.20;99.90;;;;;;5044231;28;20194;-68
2022/01/26 11:33:29;;;;;;;7.73;2.07;;;7.20;99.90;;;;;;5015320;28;20187;-68
2022/01/26 11:35:58;;;;;;;6.43;1.90;;;7.30;99.90;;;;;;5044556;28;20902;-68
2022/01/26 11:42:13;;;;;;;4.70;1.93;;;7.30;99.90;;;;;;5043385;28;20981;-68
2022/01/26 11:47:18;;;;;;;4.80;1.93;;;7.40;99.90;;;;;;5040886;28;20195;-68
2022/01/26 11:49:46;;;;;;;6.30;1.60;;;7.50;99.90;;;;;;5046139;28;20659;-68
2022/01/26 11:52:35;;;;;;;8.07;1.77;;;7.50;99.90;;;;;;5044845;28;20895;-68
2022/01/26 11:55:37;;;;;;;3.63;1.60;;;7.60;99.90;;;;;;5024478;28;20199;-68
2022/01/26 11:58:31;;;;;;;6.60;1.90;;;7.70;99.90;;;;;;5029090;28;21070;-68
2022/01/26 12:01:33;;;;;;;6.23;1.80;;;7.70;99.90;;;;;;5040997;28;20191;-68
2022/01/26 12:04:06;;;;;;;6.30;2.47;;;7.70;99.90;;;;;;5037978;28;20226;-68
2022/01/26 12:06:39;;;;;;;8.10;1.87;;;7.60;99.90;;;;;;5044025;28;20214;-68
2022/01/26 12:09:09;;;;;;;5.13;1.57;;;7.50;99.90;;;;;;5026397;28;20213;-68
2022/01/26 12:11:37;;;;;;;2.73;1.70;;;7.50;99.90;;;;;;5028091;28;20176;-68
2022/01/26 12:14:13;;;;;;;2.70;1.30;;;7.40;99.90;;;;;;5046966;28;20516;-68
2022/01/26 12:16:46;;;;;;;4.83;1.97;;;7.40;99.90;;;;;;5045770;28;20917;-68
2022/01/26 12:36:28;;;;;;;4.80;2.40;;;7.20;99.90;;;;;;5042963;28;20233;-68
2022/01/26 12:39:01;;;;;;;2.93;1.90;;;7.20;99.90;;;;;;5024327;28;20321;-68
2022/01/26 12:41:37;;;;;;;5.37;1.97;;;7.10;99.90;;;;;;5044547;28;20234;-68
2022/01/26 12:44:19;;;;;;;5.30;2.23;;;7.10;99.90;;;;;;5044688;28;20194;-68
2022/01/26 12:46:46;;;;;;;5.80;1.87;;;7.00;99.90;;;;;;5026059;28;20187;-68
2022/01/26 12:49:20;;;;;;;6.17;2.10;;;7.00;99.90;;;;;;5045082;28;20985;-68
2022/01/26 12:51:51;;;;;;;4.60;2.30;;;6.90;99.90;;;;;;5042997;28;20225;-68
2022/01/26 12:54:18;;;;;;;4.83;2.20;;;6.80;99.90;;;;;;5021948;28;20202;-68
2022/01/26 12:56:45;;;;;;;7.57;2.37;;;6.80;99.90;;;;;;5036032;28;20183;-69
2022/01/26 12:59:17;;;;;;;3.53;2.20;;;6.80;99.90;;;;;;5026339;28;20226;-69
2022/01/26 13:01:47;;;;;;;2.43;1.80;;;6.80;99.90;;;;;;5044720;28;20191;-69
2022/01/26 13:04:18;;;;;;;5.43;2.30;;;6.80;99.90;;;;;;5010477;28;20187;-68
2022/01/26 13:06:51;;;;;;;4.43;2.17;;;6.70;99.90;;;;;;5045280;28;20314;-69
2022/01/26 13:09:39;;;;;;;4.57;2.60;;;6.70;99.90;;;;;;5025568;28;20540;-69
2022/01/26 13:12:07;;;;;;;2.60;1.90;;;6.70;99.90;;;;;;5044556;28;20191;-68
2022/01/26 13:39:13;;;;;;;5.30;2.27;;;7.00;99.90;;;;;;5041850;28;20280;-69
2022/01/26 13:42:11;;;;;;;8.13;2.53;;;7.00;99.90;;;;;;5025262;28;20214;-69
2022/01/26 13:45:47;;;;;;;9.73;2.40;;;7.00;99.90;;;;;;5044210;28;20824;-68
2022/01/26 13:50:37;;;;;;;9.30;2.30;;;6.90;99.90;;;;;;5041895;28;20191;-69
2022/01/26 13:53:09;;;;;;;8.07;2.50;;;6.80;99.90;;;;;;5043822;28;20270;-69
2022/01/26 14:00:59;;;;;;;4.93;2.20;;;6.90;99.90;;;;;;5041014;28;20282;-69
2022/01/26 14:03:29;;;;;;;7.17;2.40;;;6.80;99.90;;;;;;5039264;28;20548;-69
2022/01/26 14:05:56;;;;;;;4.60;2.23;;;6.80;99.90;;;;;;5024378;28;20219;-69
2022/01/26 14:08:23;;;;;;;5.53;2.40;;;6.80;99.90;;;;;;5024293;28;20304;-69
2022/01/26 14:10:50;;;;;;;6.30;2.10;;;6.80;99.90;;;;;;5042364;28;20195;-69
2022/01/26 14:13:23;;;;;;;10.00;2.27;;;6.80;99.90;;;;;;5025287;28;20191;-69
2022/01/26 14:15:53;;;;;;;5.13;2.00;;;6.80;99.90;;;;;;5042213;28;20198;-69
2022/01/26 14:21:28;;;;;;;7.10;2.33;;;6.80;99.90;;;;;;5043418;28;20196;-69
2022/01/26 14:24:11;;;;;;;11.90;2.40;;;6.80;99.90;;;;;;5038881;28;20253;-69
2022/01/26 14:26:42;;;;;;;7.33;2.20;;;6.80;99.90;;;;;;5043841;28;20279;-69
2022/01/26 14:29:19;;;;;;;7.40;2.67;;;6.80;99.90;;;;;;5036746;28;20184;-69
2022/01/26 14:39:34;;;;;;;5.83;2.40;;;6.80;99.90;;;;;;5044777;28;20243;-69
2022/01/26 14:40:24;;;;;;;8.10;2.43;;;6.70;99.90;;;;;;5041627;28;20191;-69
2022/01/26 15:40:21;;;;;;;8.70;2.80;;;5.60;99.90;;;;;;5042181;28;20187;-68
2022/01/26 15:53:07;;;;;;;5.33;2.63;;;5.60;99.90;;;;;;5044444;28;20182;-68
2022/01/26 16:06:44;;;;;;;8.37;2.73;;;5.60;99.90;;;;;;5029464;28;20688;-69
2022/01/26 18:49:44;;;;;;;7.17;2.60;;;3.90;99.90;;;;;;5046444;28;20191;-67
2022/01/26 18:52:10;;;;;;;4.27;2.30;;;3.80;99.90;;;;;;5046533;28;20192;-67
2022/01/26 18:54:40;;;;;;;3.70;2.00;;;3.90;99.90;;;;;;5011939;28;20191;-68
2022/01/26 18:57:09;;;;;;;3.47;2.10;;;3.90;99.90;;;;;;5027215;28;20192;-67
2022/01/26 18:59:37;;;;;;;4.00;2.20;;;3.90;99.90;;;;;;5044732;28;20203;-67
2022/01/26 19:02:04;;;;;;;9.57;2.53;;;3.90;99.90;;;;;;5028687;28;20199;-67
2022/01/26 19:04:47;;;;;;;5.03;2.83;;;3.90;99.90;;;;;;5038558;28;20196;-67
2022/01/26 19:07:15;;;;;;;5.70;2.83;;;3.90;99.90;;;;;;5011467;28;20238;-67
2022/01/26 19:09:49;;;;;;;4.87;2.43;;;3.80;99.90;;;;;;5019232;28;20226;-68
2022/01/26 19:12:17;;;;;;;7.57;2.23;;;3.80;99.90;;;;;;5040365;28;20285;-67
2022/01/26 19:15:00;;;;;;;4.23;2.10;;;3.80;99.90;;;;;;5046214;28;20196;-67
2022/01/26 19:17:43;;;;;;;5.87;2.40;;;3.80;99.90;;;;;;5019641;28;20662;-67
2022/01/26 19:23:12;;;;;;;4.00;2.20;;;3.80;99.90;;;;;;5043325;28;20195;-67
2022/01/26 19:25:47;;;;;;;5.07;2.33;;;3.80;99.90;;;;;;5045341;28;20207;-67
2022/01/26 19:28:26;;;;;;;3.93;2.40;;;3.80;99.90;;;;;;5027148;28;20607;-67
2022/01/26 19:44:15;;;;;;;4.53;2.73;;;3.80;99.90;;;;;;5024843;28;20278;-68
2022/01/26 19:52:09;;;;;;;7.20;2.37;;;3.80;99.90;;;;;;5042837;28;20222;-68
2022/01/26 19:54:38;;;;;;;4.00;2.80;;;3.90;99.90;;;;;;5040144;28;20190;-68
2022/01/26 19:57:06;;;;;;;5.30;2.50;;;3.90;99.90;;;;;;5022979;28;20210;-68
2022/01/26 19:59:33;;;;;;;3.83;2.70;;;3.90;99.90;;;;;;5042783;28;20211;-69
2022/01/26 20:02:00;;;;;;;5.77;2.70;;;3.80;99.90;;;;;;5043492;28;20203;-69
2022/01/26 20:04:29;;;;;;;6.10;2.33;;;3.80;99.90;;;;;;5043112;28;20207;-68
2022/01/26 20:07:01;;;;;;;4.50;2.40;;;3.70;99.90;;;;;;5038125;28;20782;-68
2022/01/26 20:09:34;;;;;;;8.20;2.53;;;3.70;99.90;;;;;;5023533;28;20187;-68
2022/01/26 20:12:04;;;;;;;7.80;2.53;;;3.70;99.90;;;;;;5007673;28;20187;-68
2022/01/26 20:14:36;;;;;;;4.87;2.47;;;3.70;99.90;;;;;;5022681;28;20283;-68
2022/01/26 20:17:11;;;;;;;7.37;2.70;;;3.60;99.90;;;;;;5005183;28;20253;-68